Halifax (YHZ/CYHZ)

Map

Destinations

Information

Location
Halifax, Nova Scotia, Canada
Local Time
20:23 / 8:23 pm
GMT Time
00:23 / 12:23 am
Gates
Unassigned
No FAA reported delays
METAR CYHZ 222300Z 35002KT 15SM FEW040 BKN250 02/M02 A2988 RMK SC1CI6 SLP126
TAF TAF CYHZ 222338Z 2300/2324 32005KT P6SM FEW020 SCT040 BECMG 2301/2303 27005KT FM230600 28005KT P6SM FEW008 FEW100 PROB30 2306/2312 3/4SM BR FM231500 21008KT P6SM FEW008 FM231700 21012KT P6SM FEW015 SCT040 FM232100 20015KT P6SM OVC012 FM232300 20015KT 11/2SM BR OVC004 RMK NXT FCST BY 230300Z
  • No charts available